Maryville, Missouri
Current Conditions -  °F | °C
As of 10:55 AM on Monday 22 Dec 2014 (Local Time) from KICL Reporting Station
Unknown Precip Unknown Precip  
Wind Chill: 36°   Ceiling: 600
Heat Index: 41°   Visibility: 6mi
Dew Point: 41°   Wind: 8mph
Humidity: 100%   Direction: 160°SSE
Pressure: 29.55"   Gusts: NA
Location:  40.35°N, 94.87°W
Report Text: KICL 221655Z AUTO 16007KT 6SM -UP BKN006 BKN013 05/05 A2955 RMK AO2
Loading
Personal Weather Stations






























Interactive Weather Map New forecast layout! Learn more

10-Day Weather Forecast

Advertisements
Track Severe Weather on mobile